<?xml version='1.0' encoding='UTF-8'?>
<gpx xmlns="http://www.topografix.com/GPX/1/1" creator="www.balnam.be" version="1.1" xmlns:xsi="http://www.w3.org/2001/XMLSchema-instance" xsi:schemaLocation="http://www.topografix.com/GPX/1/1 http://www.topografix.com/GPX/1/1/gpx.xsd">
<trk>
<name>bwvlmi11</name>
<cmt>v</cmt>
<desc>Limal Sentier n°i11 </desc>
<link href="https://chemins.be/limal/sentier/i11"/><trkseg>
<trkpt lat="50.710300" lon="4.554195"><time>2026-05-08T05:08:46Z</time></trkpt>
<trkpt lat="50.710399" lon="4.554209"><time>2026-05-08T05:18:46Z</time></trkpt>
<trkpt lat="50.710608" lon="4.554716"><time>2026-05-08T05:28:46Z</time></trkpt>
<trkpt lat="50.711267" lon="4.556308"><time>2026-05-08T05:38:46Z</time></trkpt>
<trkpt lat="50.711204" lon="4.556336"><time>2026-05-08T05:48:46Z</time></trkpt>
<trkpt lat="50.711211" lon="4.556754"><time>2026-05-08T05:58:46Z</time></trkpt>
<trkpt lat="50.711392" lon="4.556903"><time>2026-05-08T06:08:46Z</time></trkpt>
<trkpt lat="50.711399" lon="4.558192"><time>2026-05-08T06:18:46Z</time></trkpt>
<trkpt lat="50.711317" lon="4.559098"><time>2026-05-08T06:28:46Z</time></trkpt>
<trkpt lat="50.711164" lon="4.559239"><time>2026-05-08T06:38:46Z</time></trkpt>
<trkpt lat="50.711200" lon="4.559253"><time>2026-05-08T06:48:46Z</time></trkpt>
<trkpt lat="50.711236" lon="4.559267"><time>2026-05-08T06:58:46Z</time></trkpt>
<trkpt lat="50.711307" lon="4.559381"><time>2026-05-08T07:08:46Z</time></trkpt>
<trkpt lat="50.711325" lon="4.559452"><time>2026-05-08T07:18:46Z</time></trkpt>
<trkpt lat="50.711334" lon="4.559523"><time>2026-05-08T07:28:46Z</time></trkpt>
<trkpt lat="50.711316" lon="4.559593"><time>2026-05-08T07:38:46Z</time></trkpt>
<trkpt lat="50.711289" lon="4.559678"><time>2026-05-08T07:48:46Z</time></trkpt>
<trkpt lat="50.711271" lon="4.559777"><time>2026-05-08T07:58:46Z</time></trkpt>
<trkpt lat="50.711271" lon="4.559862"><time>2026-05-08T08:08:46Z</time></trkpt>
<trkpt lat="50.711271" lon="4.559919"><time>2026-05-08T08:18:46Z</time></trkpt>
<trkpt lat="50.711315" lon="4.560018"><time>2026-05-08T08:28:46Z</time></trkpt>
<trkpt lat="50.711342" lon="4.560089"><time>2026-05-08T08:38:46Z</time></trkpt>
<trkpt lat="50.711360" lon="4.560131"><time>2026-05-08T08:48:46Z</time></trkpt>
<trkpt lat="50.711369" lon="4.560216"><time>2026-05-08T08:58:46Z</time></trkpt>
<trkpt lat="50.711351" lon="4.560301"><time>2026-05-08T09:08:46Z</time></trkpt>
<trkpt lat="50.711279" lon="4.560485"><time>2026-05-08T09:18:46Z</time></trkpt>
<trkpt lat="50.711260" lon="4.560584"><time>2026-05-08T09:28:46Z</time></trkpt>
<trkpt lat="50.711259" lon="4.561150"><time>2026-05-08T09:38:46Z</time></trkpt>
<trkpt lat="50.711250" lon="4.561419"><time>2026-05-08T09:48:46Z</time></trkpt>
<trkpt lat="50.711268" lon="4.561575"><time>2026-05-08T09:58:46Z</time></trkpt>
<trkpt lat="50.711286" lon="4.561674"><time>2026-05-08T10:08:46Z</time></trkpt>
<trkpt lat="50.711294" lon="4.561830"><time>2026-05-08T10:18:46Z</time></trkpt>
<trkpt lat="50.711312" lon="4.561901"><time>2026-05-08T10:28:46Z</time></trkpt>
<trkpt lat="50.711357" lon="4.562000"><time>2026-05-08T10:38:46Z</time></trkpt>
<trkpt lat="50.711366" lon="4.562071"><time>2026-05-08T10:48:46Z</time></trkpt>
<trkpt lat="50.711365" lon="4.562298"><time>2026-05-08T10:58:46Z</time></trkpt>
<trkpt lat="50.711356" lon="4.562538"><time>2026-05-08T11:08:46Z</time></trkpt>
<trkpt lat="50.711338" lon="4.562765"><time>2026-05-08T11:18:46Z</time></trkpt>
<trkpt lat="50.711329" lon="4.562836"><time>2026-05-08T11:28:46Z</time></trkpt>
<trkpt lat="50.711929" lon="4.563702"><time>2026-05-08T11:38:46Z</time></trkpt>
<trkpt lat="50.711974" lon="4.563744"><time>2026-05-08T11:48:46Z</time></trkpt>
<trkpt lat="50.712244" lon="4.563746"><time>2026-05-08T11:58:46Z</time></trkpt>
</trkseg>
</trk>
</gpx>